createdAt,value
2019-01-18T00:01:33.290Z,2.80
2019-01-18T00:03:59.868Z,2.80
2019-01-18T00:06:26.448Z,2.70
2019-01-18T00:08:53.170Z,2.70
2019-01-18T00:11:19.645Z,2.90
2019-01-18T00:13:46.220Z,2.70
2019-01-18T00:16:13.089Z,2.70
2019-01-18T00:18:39.853Z,2.80
2019-01-18T00:21:06.548Z,2.80
2019-01-18T00:23:33.109Z,2.80
2019-01-18T00:25:59.581Z,2.90
2019-01-18T00:28:26.190Z,2.70
2019-01-18T00:30:52.752Z,2.70
2019-01-18T00:33:19.207Z,2.60
2019-01-18T00:35:45.795Z,2.60
2019-01-18T00:38:12.819Z,2.60
2019-01-18T00:40:39.451Z,2.70
2019-01-18T00:43:05.918Z,2.70
2019-01-18T00:45:32.392Z,2.50
2019-01-18T00:47:59.328Z,2.60
2019-01-18T00:50:25.948Z,2.60
2019-01-18T00:52:52.616Z,2.60
2019-01-18T00:55:19.283Z,2.60
2019-01-18T00:57:45.951Z,2.40
2019-01-18T01:00:16.144Z,2.50
2019-01-18T01:02:42.810Z,2.60
2019-01-18T01:05:09.854Z,2.60
2019-01-18T01:07:36.620Z,2.90
2019-01-18T01:10:06.474Z,2.70
2019-01-18T01:12:33.248Z,2.80
2019-01-18T01:14:59.971Z,2.50
2019-01-18T01:17:26.751Z,2.80
2019-01-18T01:19:53.584Z,2.50
2019-01-18T01:22:20.056Z,2.70
2019-01-18T01:24:46.520Z,2.50
2019-01-18T01:27:13.227Z,2.30
2019-01-18T01:29:43.120Z,2.50
2019-01-18T01:32:11.567Z,2.60
2019-01-18T01:34:38.120Z,2.70
2019-01-18T01:37:05.196Z,2.30
2019-01-18T01:39:31.629Z,2.50
2019-01-18T01:41:58.175Z,2.10
2019-01-18T01:44:24.668Z,2.50
2019-01-18T01:46:51.357Z,2.50
2019-01-18T01:49:17.933Z,2.30
2019-01-18T01:51:44.760Z,2.40
2019-01-18T01:54:11.601Z,2.60
2019-01-18T01:56:38.143Z,2.60
2019-01-18T01:59:04.959Z,2.40
2019-01-18T02:01:31.416Z,2.30
2019-01-18T02:03:58.847Z,2.50
2019-01-18T02:06:25.413Z,2.20
2019-01-18T02:08:51.883Z,2.50
2019-01-18T02:11:18.627Z,2.20
2019-01-18T02:13:46.916Z,2.20
2019-01-18T02:16:14.079Z,2.20
2019-01-18T02:18:40.884Z,2.40
2019-01-18T02:21:07.432Z,2.40
2019-01-18T02:23:33.984Z,2.20
2019-01-18T02:26:00.573Z,2.30
2019-01-18T02:28:27.001Z,2.30
2019-01-18T02:30:53.472Z,2.40
2019-01-18T02:33:19.934Z,2.20
2019-01-18T02:35:46.422Z,2.30
2019-01-18T02:38:12.979Z,2.30
2019-01-18T02:40:39.551Z,2.30
2019-01-18T02:43:06.013Z,2.30
2019-01-18T02:45:32.587Z,2.40
2019-01-18T02:47:59.049Z,2.20
2019-01-18T02:50:25.528Z,2.40
2019-01-18T02:52:52.087Z,2.20
2019-01-18T02:55:18.550Z,2.30
2019-01-18T02:57:45.025Z,2.30
2019-01-18T03:00:19.452Z,2.30
2019-01-18T03:02:46.330Z,2.20
2019-01-18T03:05:15.221Z,2.10
2019-01-18T03:07:41.892Z,2.00
2019-01-18T03:10:14.505Z,2.20
2019-01-18T03:12:41.108Z,2.00
2019-01-18T03:15:08.242Z,2.10
2019-01-18T03:17:34.866Z,2.00
2019-01-18T03:20:01.605Z,2.30
2019-01-18T03:22:28.086Z,2.30
2019-01-18T03:24:54.542Z,2.60
2019-01-18T03:27:21.002Z,2.60
2019-01-18T03:29:47.463Z,2.40
2019-01-18T03:32:14.015Z,2.40
2019-01-18T03:34:40.575Z,2.90
2019-01-18T03:37:06.923Z,2.70
2019-01-18T03:39:33.417Z,2.70
2019-01-18T03:42:00.073Z,2.70
2019-01-18T03:44:26.532Z,2.60
2019-01-18T03:46:53.007Z,2.90
2019-01-18T03:49:19.365Z,2.70
2019-01-18T03:51:45.836Z,2.70
2019-01-18T03:54:12.393Z,3.10
2019-01-18T03:56:38.967Z,2.70
2019-01-18T03:59:05.512Z,2.80
2019-01-18T04:01:32.100Z,2.80
2019-01-18T04:03:58.677Z,2.70
2019-01-18T04:06:25.548Z,2.90
2019-01-18T04:08:52.105Z,3.00
2019-01-18T04:11:18.596Z,3.10
2019-01-18T04:13:45.159Z,3.00
2019-01-18T04:16:11.644Z,3.00
2019-01-18T04:18:38.119Z,3.00
2019-01-18T04:21:04.600Z,3.00
2019-01-18T04:23:31.054Z,2.90
2019-01-18T04:25:57.493Z,3.20
2019-01-18T04:28:23.976Z,3.20
2019-01-18T04:30:50.443Z,2.90
2019-01-18T04:33:16.964Z,3.30
2019-01-18T04:35:43.380Z,3.30
2019-01-18T04:38:10.120Z,2.90
2019-01-18T04:40:36.580Z,3.00
2019-01-18T04:43:03.548Z,3.30
2019-01-18T04:45:29.999Z,3.00
2019-01-18T04:47:56.474Z,3.00
2019-01-18T04:50:25.244Z,3.00
2019-01-18T04:52:51.829Z,2.80
2019-01-18T04:55:18.485Z,3.00
2019-01-18T04:57:45.072Z,3.00
2019-01-18T05:00:17.265Z,2.90
2019-01-18T05:02:43.933Z,2.90
2019-01-18T05:05:10.865Z,3.00
2019-01-18T05:07:37.796Z,2.90
2019-01-18T05:10:07.947Z,3.00
2019-01-18T05:12:34.396Z,2.80
2019-01-18T05:15:00.880Z,3.00
2019-01-18T05:17:27.348Z,3.10
2019-01-18T05:19:53.820Z,3.20
2019-01-18T05:22:20.361Z,2.90
2019-01-18T05:24:49.540Z,3.00
2019-01-18T05:27:15.113Z,3.00
2019-01-18T05:29:41.604Z,3.10
2019-01-18T05:32:08.155Z,2.90
2019-01-18T05:34:34.675Z,2.90
2019-01-18T05:37:01.112Z,3.00
2019-01-18T05:39:27.612Z,3.00
2019-01-18T05:41:54.162Z,3.00
2019-01-18T05:44:20.636Z,3.00
2019-01-18T05:46:47.096Z,3.00
2019-01-18T05:49:13.760Z,2.50
2019-01-18T05:51:40.269Z,2.80
2019-01-18T05:54:06.704Z,2.80
2019-01-18T05:56:33.222Z,2.80
2019-01-18T05:58:59.760Z,2.80
2019-01-18T06:01:26.346Z,2.60
2019-01-18T06:03:52.906Z,2.40
2019-01-18T06:06:19.478Z,2.40
2019-01-18T06:08:45.944Z,2.50
2019-01-18T06:11:12.791Z,2.20
2019-01-18T06:13:39.251Z,2.40
2019-01-18T06:16:05.720Z,2.30
2019-01-18T06:18:32.375Z,2.50
2019-01-18T06:20:58.915Z,2.30
2019-01-18T06:23:25.445Z,2.50
2019-01-18T06:25:51.986Z,2.30
2019-01-18T06:28:18.664Z,2.30
2019-01-18T06:30:45.207Z,2.30
2019-01-18T06:33:11.765Z,2.30
2019-01-18T06:35:38.317Z,2.40
2019-01-18T06:38:04.992Z,2.10
2019-01-18T06:40:31.832Z,2.00
2019-01-18T06:42:58.257Z,2.20
2019-01-18T06:45:29.345Z,1.80
2019-01-18T06:47:55.929Z,1.70
2019-01-18T06:50:22.580Z,2.00
2019-01-18T06:52:49.195Z,2.00
2019-01-18T06:55:16.148Z,1.60
2019-01-18T06:57:42.747Z,1.80
2019-01-18T07:00:24.907Z,1.60
2019-01-18T07:02:51.500Z,1.70
2019-01-18T07:05:18.153Z,1.90
2019-01-18T07:07:44.663Z,1.90
2019-01-18T07:10:20.448Z,1.50
2019-01-18T07:12:42.572Z,1.60
2019-01-18T07:15:11.055Z,1.50
2019-01-18T07:17:38.007Z,1.40
2019-01-18T07:20:08.100Z,1.40
2019-01-18T07:22:34.561Z,1.30
2019-01-18T07:25:01.232Z,1.40
2019-01-18T07:27:27.736Z,1.20
2019-01-18T07:29:54.188Z,1.40
2019-01-18T07:32:21.229Z,1.30
2019-01-18T07:34:47.735Z,1.50
2019-01-18T07:37:14.468Z,1.40
2019-01-18T07:39:40.856Z,1.20
2019-01-18T07:42:07.432Z,1.10
2019-01-18T07:44:34.000Z,1.50
2019-01-18T07:47:00.853Z,1.20
2019-01-18T07:49:27.306Z,1.20
2019-01-18T07:51:53.879Z,1.20
2019-01-18T07:54:20.241Z,1.20
2019-01-18T07:56:46.714Z,1.50
2019-01-18T07:59:13.086Z,1.60
2019-01-18T08:01:39.669Z,1.60
2019-01-18T08:04:06.218Z,1.50
2019-01-18T08:06:33.263Z,1.40
2019-01-18T08:08:59.913Z,2.00
2019-01-18T08:11:26.525Z,1.80
2019-01-18T08:13:53.105Z,1.60
2019-01-18T08:16:19.991Z,1.80
2019-01-18T08:18:46.454Z,1.70
2019-01-18T08:21:13.057Z,2.20
2019-01-18T08:23:39.484Z,2.00
2019-01-18T08:26:05.961Z,1.60
2019-01-18T08:28:32.620Z,1.90
2019-01-18T08:30:59.099Z,2.10
2019-01-18T08:33:25.708Z,2.00
2019-01-18T08:35:52.280Z,2.20
2019-01-18T08:38:18.674Z,2.30
2019-01-18T08:40:46.905Z,2.40
2019-01-18T08:43:13.940Z,2.40
2019-01-18T08:45:46.277Z,2.60
2019-01-18T08:48:12.825Z,3.10
2019-01-18T08:50:40.300Z,3.20
2019-01-18T08:53:06.963Z,3.30
2019-01-18T08:55:33.678Z,3.70
2019-01-18T08:58:00.224Z,4.00
2019-01-18T09:00:28.388Z,3.90
2019-01-18T09:02:54.978Z,3.90
2019-01-18T09:05:23.603Z,3.70
2019-01-18T09:07:50.332Z,4.70
2019-01-18T09:10:22.232Z,6.40
2019-01-18T09:12:48.996Z,8.50
2019-01-18T09:15:15.758Z,10.10
2019-01-18T09:17:43.102Z,10.90
2019-01-18T09:20:20.541Z,9.70
2019-01-18T09:22:47.425Z,10.20
2019-01-18T09:25:14.487Z,11.60
2019-01-18T09:27:42.157Z,12.00
2019-01-18T09:30:14.288Z,11.30
2019-01-18T09:32:40.884Z,11.20
2019-01-18T09:35:09.848Z,11.20
2019-01-18T09:37:36.516Z,10.60
2019-01-18T09:40:09.492Z,10.70
2019-01-18T09:42:36.245Z,11.20
2019-01-18T09:45:06.060Z,11.70
2019-01-18T09:47:32.916Z,13.70
2019-01-18T09:50:00.781Z,11.30
2019-01-18T09:52:27.497Z,10.90
2019-01-18T09:54:54.172Z,11.20
2019-01-18T09:57:24.046Z,11.60
2019-01-18T10:00:01.930Z,10.40
2019-01-18T10:02:28.469Z,10.10
2019-01-18T10:04:55.207Z,10.60
2019-01-18T10:07:21.602Z,10.70
2019-01-18T10:09:48.112Z,9.90
2019-01-18T10:12:14.578Z,9.80
2019-01-18T10:14:41.091Z,9.90
2019-01-18T10:17:07.647Z,10.30
2019-01-18T10:19:34.246Z,10.20
2019-01-18T10:22:00.902Z,10.70
2019-01-18T10:24:27.553Z,10.60
2019-01-18T10:26:53.969Z,10.10
2019-01-18T10:29:20.597Z,9.50
2019-01-18T10:31:47.231Z,9.40
2019-01-18T10:34:13.741Z,9.20
2019-01-18T10:36:40.307Z,10.60
2019-01-18T10:39:07.969Z,10.20
2019-01-18T10:41:34.415Z,9.00
2019-01-18T10:44:05.949Z,8.80
2019-01-18T10:46:29.409Z,7.60
2019-01-18T10:48:55.902Z,9.50
2019-01-18T10:51:22.356Z,10.90
2019-01-18T10:53:48.908Z,10.90
2019-01-18T10:56:15.388Z,12.30
2019-01-18T10:58:41.940Z,14.20
2019-01-18T11:01:08.416Z,15.30
2019-01-18T11:03:35.075Z,15.40
2019-01-18T11:06:01.727Z,15.40
2019-01-18T11:08:28.352Z,13.20
2019-01-18T11:10:56.992Z,11.00
2019-01-18T11:13:23.754Z,10.70
2019-01-18T11:15:50.341Z,10.60
2019-01-18T11:18:17.279Z,10.70
2019-01-18T11:20:47.352Z,11.70
2019-01-18T11:23:14.071Z,10.60
2019-01-18T11:25:42.442Z,10.10
2019-01-18T11:28:10.885Z,9.40
2019-01-18T11:30:37.551Z,8.40
2019-01-18T11:33:04.218Z,7.90
2019-01-18T11:35:30.672Z,7.40
2019-01-18T11:37:59.263Z,8.00
2019-01-18T11:40:25.849Z,9.20
2019-01-18T11:42:52.523Z,9.60
2019-01-18T11:45:19.174Z,10.50
2019-01-18T11:47:46.096Z,11.30
2019-01-18T11:50:15.748Z,12.90
2019-01-18T11:52:42.388Z,13.70
2019-01-18T11:55:09.296Z,14.60
2019-01-18T11:57:35.976Z,14.20
2019-01-18T12:00:14.464Z,10.80
2019-01-18T12:02:41.533Z,11.00
2019-01-18T12:05:10.873Z,12.60
2019-01-18T12:07:40.259Z,13.00
2019-01-18T12:10:10.555Z,11.50
2019-01-18T12:12:37.250Z,10.60
2019-01-18T12:15:09.440Z,10.20
2019-01-18T12:17:36.357Z,11.20
2019-01-18T12:20:06.956Z,9.50
2019-01-18T12:22:36.320Z,10.50
2019-01-18T12:25:08.870Z,10.50
2019-01-18T12:27:35.844Z,10.20
2019-01-18T12:30:08.232Z,10.20
2019-01-18T12:32:34.784Z,10.00
2019-01-18T12:35:02.738Z,9.90
2019-01-18T12:37:29.119Z,8.90
2019-01-18T12:39:55.694Z,9.80
2019-01-18T12:42:22.345Z,9.80
2019-01-18T12:44:49.108Z,8.60
2019-01-18T12:47:15.466Z,7.10
2019-01-18T12:49:44.358Z,6.80
2019-01-18T12:52:11.037Z,6.60
2019-01-18T12:54:37.605Z,6.50
2019-01-18T12:57:04.159Z,6.50
2019-01-18T12:59:40.212Z,6.60
2019-01-18T13:02:06.880Z,7.50
2019-01-18T13:04:33.323Z,8.70
2019-01-18T13:06:59.715Z,8.90
2019-01-18T13:09:28.977Z,9.00
2019-01-18T13:11:55.451Z,9.90
2019-01-18T13:14:21.822Z,9.20
2019-01-18T13:16:48.406Z,9.10
2019-01-18T13:19:14.963Z,9.80
2019-01-18T13:21:41.544Z,9.50
2019-01-18T13:24:08.191Z,8.90
2019-01-18T13:26:35.051Z,8.40
2019-01-18T13:29:01.616Z,8.30
2019-01-18T13:31:31.895Z,9.50
2019-01-18T13:33:58.559Z,9.80
2019-01-18T13:36:28.272Z,9.50
2019-01-18T13:38:54.939Z,8.90
2019-01-18T13:41:21.738Z,7.70
2019-01-18T13:43:48.471Z,8.30
2019-01-18T13:46:15.140Z,7.40
2019-01-18T13:48:41.691Z,6.90
2019-01-18T13:51:08.343Z,7.00
2019-01-18T13:53:35.016Z,6.20
2019-01-18T13:56:01.572Z,6.40
2019-01-18T13:58:28.295Z,6.30
2019-01-18T14:00:57.133Z,5.90
2019-01-18T14:03:23.880Z,6.10
2019-01-18T14:05:55.507Z,5.90
2019-01-18T14:08:25.142Z,5.60
2019-01-18T14:10:56.419Z,5.70
2019-01-18T14:13:23.160Z,5.50
2019-01-18T14:15:52.768Z,5.30
2019-01-18T14:18:19.865Z,5.30
2019-01-18T14:20:48.544Z,5.50
2019-01-18T14:23:15.226Z,5.30
2019-01-18T14:25:41.932Z,5.30
2019-01-18T14:28:08.517Z,5.20
2019-01-18T14:30:35.822Z,5.20
2019-01-18T14:33:02.734Z,5.30
2019-01-18T14:35:29.276Z,5.10
2019-01-18T14:37:56.019Z,5.00
2019-01-18T14:40:22.603Z,5.00
2019-01-18T14:42:50.881Z,5.10
2019-01-18T14:45:20.929Z,4.60
2019-01-18T14:47:47.496Z,4.80
2019-01-18T14:50:18.915Z,4.90
2019-01-18T14:52:45.562Z,4.80
2019-01-18T14:55:12.615Z,4.50
2019-01-18T14:57:39.439Z,4.70
2019-01-18T15:00:15.736Z,4.80
2019-01-18T15:02:42.376Z,4.80
2019-01-18T15:05:09.948Z,4.70
2019-01-18T15:07:36.493Z,4.90
2019-01-18T15:10:06.950Z,4.70
2019-01-18T15:12:33.509Z,4.90
2019-01-18T15:14:59.989Z,4.80
2019-01-18T15:17:26.503Z,4.70
2019-01-18T15:19:53.122Z,4.40
2019-01-18T15:22:19.621Z,4.60
2019-01-18T15:24:46.003Z,4.70
2019-01-18T15:27:12.827Z,4.50
2019-01-18T15:29:39.400Z,5.00
2019-01-18T15:32:06.217Z,4.70
2019-01-18T15:34:33.027Z,4.80
2019-01-18T15:36:59.592Z,5.40
2019-01-18T15:39:26.240Z,4.90
2019-01-18T15:41:52.817Z,5.00
2019-01-18T15:44:19.268Z,4.60
2019-01-18T15:46:46.012Z,4.60
2019-01-18T15:49:12.548Z,4.70
2019-01-18T15:51:38.928Z,4.20
2019-01-18T15:54:05.464Z,4.00
2019-01-18T15:56:32.240Z,4.20
2019-01-18T15:58:58.903Z,3.90
2019-01-18T16:01:25.575Z,3.80
2019-01-18T16:03:52.237Z,3.70
2019-01-18T16:06:19.008Z,3.50
2019-01-18T16:08:45.555Z,3.50
2019-01-18T16:11:12.034Z,3.50
2019-01-18T16:13:38.487Z,3.40
2019-01-18T16:16:08.667Z,3.60
2019-01-18T16:18:35.128Z,3.20
2019-01-18T16:21:02.629Z,3.20
2019-01-18T16:23:29.548Z,3.20
2019-01-18T16:25:56.032Z,3.10
2019-01-18T16:28:22.579Z,3.20
2019-01-18T16:30:49.156Z,3.20
2019-01-18T16:33:22.945Z,3.10
2019-01-18T16:35:44.108Z,3.10
2019-01-18T16:38:11.644Z,3.20
2019-01-18T16:40:38.309Z,3.10
2019-01-18T16:43:19.765Z,3.10
2019-01-18T16:45:46.329Z,3.20
2019-01-18T16:48:13.121Z,2.90
2019-01-18T16:50:39.671Z,2.90
2019-01-18T16:53:06.164Z,3.00
2019-01-18T16:55:32.804Z,3.20
2019-01-18T16:57:59.728Z,2.90
2019-01-18T17:00:35.728Z,3.00
2019-01-18T17:03:02.413Z,3.00
2019-01-18T17:05:29.065Z,2.90
2019-01-18T17:07:55.643Z,3.00
2019-01-18T17:10:22.197Z,2.90
2019-01-18T17:12:49.128Z,2.70
2019-01-18T17:15:15.824Z,2.70
2019-01-18T17:17:42.705Z,2.70
2019-01-18T17:20:21.208Z,2.60
2019-01-18T17:22:47.701Z,2.90
2019-01-18T17:25:14.508Z,2.70
2019-01-18T17:27:41.012Z,2.70
2019-01-18T17:30:19.211Z,2.70
2019-01-18T17:32:46.181Z,2.50
2019-01-18T17:35:16.057Z,2.80
2019-01-18T17:37:45.322Z,2.50
2019-01-18T17:40:15.700Z,2.60
2019-01-18T17:42:48.876Z,2.70
2019-01-18T17:45:50.736Z,2.40
2019-01-18T17:48:21.036Z,2.40
2019-01-18T17:51:00.351Z,2.30
2019-01-18T17:53:54.953Z,2.50
2019-01-18T17:56:25.205Z,2.40
2019-01-18T17:59:01.620Z,2.40
2019-01-18T18:01:50.009Z,2.40
2019-01-18T18:04:29.338Z,2.30
2019-01-18T18:07:19.544Z,2.50
2019-01-18T18:09:52.780Z,2.50
2019-01-18T18:12:41.162Z,2.50
2019-01-18T18:15:14.440Z,2.40
2019-01-18T18:17:50.369Z,2.10
2019-01-18T18:20:44.739Z,2.20
2019-01-18T18:23:29.772Z,2.20
2019-01-18T18:26:05.832Z,2.10
2019-01-18T18:29:03.320Z,2.30
2019-01-18T18:31:39.397Z,2.30
2019-01-18T18:34:21.301Z,2.10
2019-01-18T18:36:57.293Z,1.90
2019-01-18T18:39:39.715Z,2.00
2019-01-18T18:42:28.174Z,2.20
2019-01-18T18:45:15.220Z,2.00
2019-01-18T18:47:48.264Z,2.20
2019-01-18T18:50:27.580Z,1.90
2019-01-18T18:53:18.795Z,2.00
2019-01-18T18:55:55.439Z,2.00
2019-01-18T18:58:27.800Z,2.30
2019-01-18T19:01:07.119Z,2.30
2019-01-18T19:03:49.495Z,2.10
2019-01-18T19:06:28.452Z,2.20
2019-01-18T19:09:07.793Z,2.20
2019-01-18T19:11:43.934Z,2.00
2019-01-18T19:14:17.031Z,1.90
2019-01-18T19:16:56.435Z,2.10
2019-01-18T19:19:38.580Z,2.20
2019-01-18T19:22:30.103Z,2.20
2019-01-18T19:25:22.996Z,2.20
2019-01-18T19:27:56.021Z,2.20
2019-01-18T19:30:29.083Z,2.20
2019-01-18T19:33:11.309Z,2.20
2019-01-18T19:36:01.168Z,2.20
2019-01-18T19:38:31.441Z,2.00
2019-01-18T19:41:10.540Z,2.40
2019-01-18T19:43:55.656Z,2.10
2019-01-18T19:46:37.883Z,2.20
2019-01-18T19:49:13.987Z,2.20
2019-01-18T19:51:44.245Z,2.20
2019-01-18T19:54:20.275Z,2.20
2019-01-18T19:56:59.592Z,2.20
2019-01-18T19:59:49.532Z,2.20
2019-01-18T20:02:19.705Z,2.20
2019-01-18T20:05:18.771Z,2.20
2019-01-18T20:07:57.785Z,2.20
2019-01-18T20:11:03.989Z,2.30
2019-01-18T20:13:34.243Z,2.30
2019-01-18T20:16:30.896Z,2.30
2019-01-18T20:19:22.140Z,2.10
2019-01-18T20:21:55.516Z,2.00
2019-01-18T20:24:34.823Z,1.90
2019-01-18T20:27:13.965Z,1.90
2019-01-18T20:29:44.597Z,2.30
2019-01-18T20:32:29.246Z,2.30
2019-01-18T20:35:02.423Z,2.10
2019-01-18T20:37:47.535Z,2.00
2019-01-18T20:40:38.740Z,2.10
2019-01-18T20:43:14.877Z,2.00
2019-01-18T20:46:06.378Z,2.20
2019-01-18T20:49:00.731Z,2.00
2019-01-18T20:51:57.988Z,1.90
2019-01-18T20:54:48.955Z,1.90
2019-01-18T20:57:24.862Z,2.10
2019-01-18T21:00:01.353Z,2.10
2019-01-18T21:02:34.460Z,2.10
2019-01-18T21:05:04.725Z,1.90
2019-01-18T21:07:53.042Z,2.10
2019-01-18T21:10:25.892Z,1.90
2019-01-18T21:13:02.298Z,2.10
2019-01-18T21:15:35.681Z,2.00
2019-01-18T21:18:08.614Z,2.10
2019-01-18T21:20:44.637Z,2.00
2019-01-18T21:23:30.315Z,1.80
2019-01-18T21:26:18.494Z,2.00
2019-01-18T21:28:57.897Z,2.30
2019-01-18T21:31:43.322Z,2.30
2019-01-18T21:34:13.596Z,2.40
2019-01-18T21:37:09.581Z,1.90
2019-01-18T21:39:51.496Z,2.20
2019-01-18T21:42:24.799Z,2.00
2019-01-18T21:45:29.671Z,1.90
2019-01-18T21:48:21.284Z,2.00
2019-01-18T21:51:08.141Z,1.80
2019-01-18T21:53:38.418Z,1.90
2019-01-18T21:56:14.747Z,1.80
2019-01-18T21:58:50.848Z,1.90
2019-01-18T22:01:27.140Z,2.10
2019-01-18T22:03:57.431Z,2.00
2019-01-18T22:06:33.643Z,1.80
2019-01-18T22:09:09.589Z,1.60
2019-01-18T22:11:39.940Z,1.90
2019-01-18T22:14:16.257Z,2.10
2019-01-18T22:16:49.281Z,1.80
2019-01-18T22:19:34.765Z,1.70
2019-01-18T22:22:11.255Z,2.00
2019-01-18T22:25:07.100Z,1.70
2019-01-18T22:27:37.541Z,2.00
2019-01-18T22:30:20.065Z,2.00
2019-01-18T22:32:50.320Z,1.90
2019-01-18T22:35:39.932Z,1.90
2019-01-18T22:38:22.331Z,1.80
2019-01-18T22:41:10.836Z,1.70
2019-01-18T22:43:50.055Z,1.60
2019-01-18T22:46:26.109Z,1.70
2019-01-18T22:48:59.510Z,1.90
2019-01-18T22:51:32.970Z,1.70
2019-01-18T22:54:12.305Z,1.90
2019-01-18T22:56:51.721Z,1.80
2019-01-18T22:59:27.685Z,1.90
2019-01-18T23:02:09.844Z,1.60
2019-01-18T23:04:55.949Z,1.80
2019-01-18T23:07:35.297Z,1.70
2019-01-18T23:10:23.314Z,1.70
2019-01-18T23:13:05.509Z,1.70
2019-01-18T23:15:54.006Z,1.80
2019-01-18T23:18:29.979Z,1.70
2019-01-18T23:21:12.065Z,1.50
2019-01-18T23:23:45.429Z,1.50
2019-01-18T23:26:15.766Z,1.60
2019-01-18T23:28:58.179Z,1.70
2019-01-18T23:31:49.687Z,1.70
2019-01-18T23:34:20.000Z,1.70
2019-01-18T23:36:59.060Z,1.90
2019-01-18T23:39:32.327Z,1.60
2019-01-18T23:42:17.578Z,1.60
2019-01-18T23:45:09.205Z,1.40
2019-01-18T23:47:51.237Z,1.40
2019-01-18T23:50:44.351Z,1.50
2019-01-18T23:53:26.511Z,1.60
2019-01-18T23:56:05.600Z,0.90
2019-01-18T23:58:51.072Z,1.40
